Time;durP1;ratioP1;P1;durP2;ratioP2;P2;SDS_P1;SDS_P2;PMS_P1;PMS_P2;Temp;Humidity;BMP_temperature;BMP_pressure;BME280_temperature;BME280_humidity;BME280_pressure;Samples;Min_cycle;Max_cycle;Signal;HPM_P1;HPM_P2
2021/05/08 04:12:15;;;;;;;0.93;0.93;;;7.30;99.90;;;;;;5177742;23;20306;-78
2021/05/08 04:14:41;;;;;;;1.10;1.10;;;7.40;99.90;;;;;;5006436;28;20251;-79
2021/05/08 04:17:08;;;;;;;0.90;0.90;;;7.30;99.90;;;;;;5005913;28;20203;-79
2021/05/08 04:19:35;;;;;;;0.93;0.93;;;7.40;99.90;;;;;;5006035;28;20204;-78
2021/05/08 04:22:02;;;;;;;0.90;0.90;;;;;;;;;;5006258;28;20236;-78
2021/05/08 04:24:29;;;;;;;0.90;0.90;;;7.30;99.90;;;;;;5005700;28;20200;-79
2021/05/08 04:26:56;;;;;;;1.00;1.00;;;7.40;99.90;;;;;;5035190;23;20238;-74
2021/05/08 04:29:24;;;;;;;0.90;0.90;;;7.00;99.90;;;;;;5014444;28;20203;-75
2021/05/08 04:31:52;;;;;;;0.93;0.93;;;6.90;99.90;;;;;;5012871;28;20207;-74
2021/05/08 04:34:19;;;;;;;0.90;0.90;;;7.00;99.90;;;;;;5013973;28;20323;-76
2021/05/08 04:36:46;;;;;;;1.10;1.10;;;7.00;99.90;;;;;;5014162;28;20584;-73
2021/05/08 04:39:13;;;;;;;1.03;1.03;;;7.00;99.90;;;;;;5014082;28;20207;-75
2021/05/08 04:41:40;;;;;;;1.00;1.00;;;6.90;99.90;;;;;;5014365;28;20203;-75
2021/05/08 04:44:08;;;;;;;1.10;1.10;;;6.90;99.90;;;;;;5013170;28;20203;-75
2021/05/08 04:46:35;;;;;;;1.00;1.00;;;6.90;99.90;;;;;;5014002;28;20227;-76
2021/05/08 04:49:03;;;;;;;1.00;1.00;;;7.00;99.90;;;;;;5013994;28;20210;-75
2021/05/08 04:51:30;;;;;;;1.10;1.10;;;7.10;99.90;;;;;;5014044;28;20214;-75
2021/05/08 04:53:57;;;;;;;0.90;0.90;;;7.00;99.90;;;;;;5013651;28;20223;-74
2021/05/08 04:56:24;;;;;;;1.20;1.20;;;7.10;99.90;;;;;;5013739;28;20719;-76
2021/05/08 04:58:51;;;;;;;0.90;0.90;;;7.20;99.90;;;;;;5014143;28;20203;-75
2021/05/08 05:01:17;;;;;;;0.90;0.90;;;7.30;99.90;;;;;;5014090;28;20242;-75
2021/05/08 05:03:45;;;;;;;1.00;1.00;;;7.40;99.90;;;;;;5013549;28;20223;-75
2021/05/08 05:06:12;;;;;;;1.07;1.07;;;7.40;99.90;;;;;;5014065;28;20251;-76
2021/05/08 05:08:39;;;;;;;1.03;1.03;;;7.50;99.90;;;;;;5013876;28;20269;-75
2021/05/08 05:11:05;;;;;;;1.00;1.00;;;7.60;99.90;;;;;;5013849;28;20238;-74
2021/05/08 05:13:32;;;;;;;1.00;1.00;;;7.70;99.90;;;;;;5013519;28;20215;-75
2021/05/08 05:15:59;;;;;;;1.00;1.00;;;7.70;99.90;;;;;;5013529;28;20231;-76
2021/05/08 05:18:30;;;;;;;0.90;0.90;;;7.70;99.90;;;;;;5013551;28;20257;-75
2021/05/08 05:20:57;;;;;;;1.00;1.00;;;7.80;99.90;;;;;;5013792;28;20203;-76
2021/05/08 05:23:25;;;;;;;0.97;0.97;;;;;;;;;;5013425;28;20743;-76
2021/05/08 05:25:56;;;;;;;0.90;0.90;;;7.90;99.90;;;;;;5013118;28;20235;-75
2021/05/08 05:28:24;;;;;;;1.00;1.00;;;8.00;99.90;;;;;;5013198;28;20207;-76
2021/05/08 05:30:52;;;;;;;0.90;0.90;;;8.00;99.90;;;;;;5013214;28;20235;-75
2021/05/08 05:33:20;;;;;;;0.93;0.93;;;8.10;99.90;;;;;;5013238;28;20626;-75
2021/05/08 05:35:47;;;;;;;1.00;1.00;;;8.20;99.90;;;;;;5012891;28;20734;-76
2021/05/08 05:38:16;;;;;;;0.90;0.90;;;8.30;99.90;;;;;;5013201;28;20227;-75
2021/05/08 05:40:44;;;;;;;1.03;1.03;;;8.40;99.60;;;;;;5013124;28;20227;-75
2021/05/08 05:43:11;;;;;;;0.80;0.80;;;8.50;99.40;;;;;;5013109;28;20261;-75
2021/05/08 05:45:38;;;;;;;0.90;0.90;;;8.60;99.30;;;;;;5012748;28;20255;-75
2021/05/08 05:48:06;;;;;;;0.93;0.93;;;8.60;99.20;;;;;;5012888;28;20263;-75
2021/05/08 05:50:37;;;;;;;0.90;0.90;;;8.70;98.80;;;;;;5012927;28;20274;-75
2021/05/08 05:53:04;;;;;;;0.90;0.90;;;8.80;98.40;;;;;;5007416;28;20228;-75
2021/05/08 05:55:32;;;;;;;1.10;1.10;;;8.80;98.10;;;;;;5002271;28;20222;-74
2021/05/08 05:57:59;;;;;;;1.00;1.00;;;8.90;97.90;;;;;;5003003;28;20203;-73
2021/05/08 06:00:26;;;;;;;0.95;0.95;;;9.00;97.50;;;;;;5002650;28;20197;-77
2021/05/08 06:02:53;;;;;;;0.90;0.90;;;9.10;97.00;;;;;;5005636;28;20222;-79
2021/05/08 06:05:21;;;;;;;0.90;0.90;;;9.20;96.50;;;;;;5003613;28;20219;-77
2021/05/08 06:07:48;;;;;;;0.90;0.90;;;9.40;96.70;;;;;;4998811;28;20254;-78
2021/05/08 06:10:15;;;;;;;0.80;0.80;;;9.60;96.40;;;;;;5013038;28;20203;-77
2021/05/08 06:16:30;;;;;;;0.80;0.80;;;9.70;95.90;;;;;;5003863;28;20214;-78
2021/05/08 06:18:57;;;;;;;0.70;0.70;;;9.90;95.40;;;;;;5003381;28;20729;-75
2021/05/08 06:21:24;;;;;;;0.90;0.90;;;9.90;94.90;;;;;;5002291;28;20199;-78
2021/05/08 06:23:51;;;;;;;0.80;0.80;;;10.00;94.50;;;;;;5006968;28;20211;-77
2021/05/08 06:26:18;;;;;;;0.70;0.70;;;10.10;94.30;;;;;;4997862;28;20285;-79
2021/05/08 06:28:52;;;;;;;0.70;0.70;;;10.20;93.40;;;;;;5002786;28;20200;-80
2021/05/08 06:31:19;;;;;;;0.90;0.90;;;10.30;93.30;;;;;;5000573;28;20207;-82
2021/05/08 06:33:47;;;;;;;0.85;0.85;;;10.30;92.90;;;;;;5000221;28;20692;-84
2021/05/08 06:36:14;;;;;;;0.70;0.70;;;10.40;92.70;;;;;;5008499;28;20251;-80
2021/05/08 06:38:41;;;;;;;0.80;0.80;;;10.50;92.50;;;;;;5010640;28;20200;-83
2021/05/08 06:41:08;;;;;;;0.70;0.70;;;10.80;99.00;;;;;;5011294;28;20207;-81
2021/05/08 06:43:35;;;;;;;0.70;0.70;;;10.90;92.20;;;;;;5016923;28;20211;-84
2021/05/08 06:46:01;;;;;;;0.70;0.70;;;11.10;91.40;;;;;;5023103;28;20223;-79
2021/05/08 06:48:28;;;;;;;0.70;0.70;;;11.30;90.80;;;;;;5020782;28;20691;-80
2021/05/08 06:50:56;;;;;;;0.75;0.75;;;11.40;90.40;;;;;;5019644;28;20254;-82
2021/05/08 06:53:23;;;;;;;0.70;0.70;;;11.50;88.30;;;;;;5013261;28;20219;-76
2021/05/08 06:55:50;;;;;;;0.70;0.70;;;11.60;88.80;;;;;;5008555;28;20294;-78
2021/05/08 06:58:16;;;;;;;0.70;0.70;;;11.70;87.70;;;;;;5007242;28;20200;-75
2021/05/08 07:00:43;;;;;;;0.60;0.60;;;11.90;86.70;;;;;;5001085;28;20228;-77
2021/05/08 07:03:10;;;;;;;0.80;0.80;;;12.10;82.30;;;;;;4992344;28;20240;-75
2021/05/08 07:05:37;;;;;;;0.70;0.70;;;12.20;83.80;;;;;;4998096;28;20266;-77
2021/05/08 07:08:07;;;;;;;0.70;0.70;;;12.10;82.40;;;;;;5004103;28;20660;-76
2021/05/08 07:10:43;;;;;;;0.70;0.70;;;12.10;80.20;;;;;;5007814;28;20200;-73
2021/05/08 07:13:10;;;;;;;0.50;0.50;;;12.20;81.20;;;;;;5013358;28;20203;-77
2021/05/08 07:15:51;;;;;;;0.60;0.60;;;12.20;80.20;;;;;;4998752;28;20303;-75
2021/05/08 07:18:18;;;;;;;0.60;0.60;;;12.40;80.30;;;;;;4998993;28;20204;-75
2021/05/08 07:20:45;;;;;;;0.70;0.70;;;12.50;79.50;;;;;;4996026;28;20212;-75
2021/05/08 07:23:13;;;;;;;0.70;0.70;;;12.30;79.50;;;;;;4995747;28;20236;-75
2021/05/08 07:25:40;;;;;;;0.70;0.70;;;12.30;79.80;;;;;;4995666;28;20270;-74
2021/05/08 07:28:11;;;;;;;0.70;0.70;;;12.30;79.70;;;;;;4995830;28;20727;-74
2021/05/08 07:30:39;;;;;;;0.60;0.60;;;12.30;76.80;;;;;;4995893;28;20251;-75
2021/05/08 07:33:06;;;;;;;0.70;0.70;;;12.10;78.30;;;;;;4995669;28;20196;-74
2021/05/08 07:35:33;;;;;;;0.63;0.63;;;12.00;77.60;;;;;;4995337;28;20315;-75
2021/05/08 07:38:01;;;;;;;0.70;0.70;;;12.30;91.60;;;;;;4995245;28;20738;-75
2021/05/08 07:40:30;;;;;;;0.70;0.70;;;12.00;78.20;;;;;;4999007;28;20214;-74
2021/05/08 07:42:57;;;;;;;0.60;0.60;;;11.90;78.10;;;;;;5015191;28;20203;-75
2021/05/08 07:45:24;;;;;;;0.70;0.70;;;11.90;79.50;;;;;;5014667;28;20224;-75
2021/05/08 07:47:51;;;;;;;0.73;0.73;;;11.80;75.30;;;;;;5014984;28;20628;-74
2021/05/08 07:50:18;;;;;;;0.70;0.70;;;11.80;76.90;;;;;;5014818;28;20203;-76
2021/05/08 07:52:46;;;;;;;0.73;0.73;;;12.10;77.60;;;;;;5011781;28;20586;-75
2021/05/08 07:55:13;;;;;;;0.68;0.68;;;12.10;90.30;;;;;;5014761;28;20271;-75
2021/05/08 07:57:41;;;;;;;0.80;0.80;;;12.10;76.10;;;;;;5008893;28;20200;-75
2021/05/08 08:00:12;;;;;;;0.70;0.70;;;12.10;76.70;;;;;;5014743;28;20231;-74
2021/05/08 08:02:39;;;;;;;0.65;0.65;;;12.30;74.90;;;;;;5014747;28;20203;-75
2021/05/08 08:05:10;;;;;;;0.70;0.70;;;12.10;90.00;;;;;;5015418;28;20714;-72
2021/05/08 08:07:46;;;;;;;0.70;0.70;;;12.20;74.80;;;;;;4998815;28;20204;-72
2021/05/08 08:10:13;;;;;;;0.70;0.70;;;12.20;74.90;;;;;;5003443;28;20227;-72
2021/05/08 08:12:42;;;;;;;0.70;0.70;;;12.20;74.60;;;;;;5003620;28;20207;-73
2021/05/08 08:15:11;;;;;;;0.65;0.65;;;12.20;90.00;;;;;;5003338;28;20559;-72
2021/05/08 08:17:38;;;;;;;0.65;0.65;;;12.30;74.60;;;;;;5008021;28;20652;-73
2021/05/08 08:20:08;;;;;;;0.70;0.70;;;12.30;75.40;;;;;;5014375;28;20319;-73
2021/05/08 08:22:36;;;;;;;0.70;0.70;;;12.30;76.40;;;;;;5014541;28;20253;-73
2021/05/08 08:25:04;;;;;;;0.50;0.50;;;12.90;89.40;;;;;;5010889;28;20247;-73
2021/05/08 08:27:31;;;;;;;0.65;0.65;;;12.70;74.10;;;;;;5003039;28;20192;-73
2021/05/08 08:29:59;;;;;;;0.60;0.60;;;12.70;72.90;;;;;;5004492;28;20203;-72
2021/05/08 08:32:26;;;;;;;0.70;0.70;;;12.40;73.00;;;;;;5013550;28;20203;-73
2021/05/08 08:34:53;;;;;;;0.70;0.70;;;12.40;72.20;;;;;;5007866;28;20738;-73
2021/05/08 08:37:20;;;;;;;0.68;0.68;;;12.30;72.00;;;;;;5014153;28;20231;-72
2021/05/08 08:39:48;;;;;;;0.80;0.80;;;12.40;71.30;;;;;;5008677;28;20771;-72
2021/05/08 08:42:15;;;;;;;0.60;0.60;;;12.50;71.40;;;;;;5013928;28;20242;-73
2021/05/08 08:44:42;;;;;;;0.60;0.60;;;12.60;71.70;;;;;;5013843;28;20199;-73
2021/05/08 08:50:00;;;;;;;0.60;0.60;;;12.70;71.30;;;;;;5003960;28;20200;-73
2021/05/08 08:52:28;;;;;;;0.60;0.60;;;12.80;71.30;;;;;;4994873;28;20200;-74
2021/05/08 08:54:56;;;;;;;0.70;0.70;;;12.70;68.90;;;;;;4999652;28;20216;-73
2021/05/08 08:57:27;;;;;;;0.70;0.70;;;12.70;70.60;;;;;;4993924;28;20216;-74
2021/05/08 08:59:55;;;;;;;0.60;0.60;;;12.80;70.40;;;;;;4994137;28;20258;-72
2021/05/08 09:02:26;;;;;;;0.65;0.65;;;13.20;70.30;;;;;;4994582;28;20199;-72
2021/05/08 09:04:58;;;;;;;0.50;0.50;;;13.10;60.80;;;;;;4996842;28;20194;-77
2021/05/08 09:07:27;;;;;;;0.70;0.70;;;13.10;61.30;;;;;;5012837;28;20203;-74
2021/05/08 09:09:55;;;;;;;0.50;0.50;;;12.60;60.80;;;;;;5014693;28;20261;-73
2021/05/08 09:12:26;;;;;;;0.60;0.60;;;13.00;62.40;;;;;;5013813;28;20579;-74
2021/05/08 09:14:54;;;;;;;0.60;0.60;;;12.90;61.50;;;;;;5007144;28;20707;-75
2021/05/08 09:17:25;;;;;;;0.70;0.70;;;12.70;63.00;;;;;;4998601;28;20278;-73
2021/05/08 09:19:58;;;;;;;0.63;0.63;;;12.70;74.80;;;;;;4993593;28;20808;-74
2021/05/08 09:22:28;;;;;;;0.63;0.63;;;12.90;59.20;;;;;;4994244;28;20227;-74
2021/05/08 09:25:06;;;;;;;0.70;0.70;;;13.00;57.50;;;;;;5010048;28;20195;-74
2021/05/08 09:27:45;;;;;;;0.60;0.60;;;13.10;56.60;;;;;;5022472;28;20210;-73
2021/05/08 09:30:18;;;;;;;0.50;0.50;;;13.30;58.00;;;;;;5016600;28;20202;-73
2021/05/08 09:32:58;;;;;;;0.60;0.60;;;13.50;58.20;;;;;;5013897;28;20291;-74
2021/05/08 09:35:27;;;;;;;0.50;0.50;;;13.50;58.20;;;;;;5013408;28;20231;-73
2021/05/08 09:38:07;;;;;;;0.60;0.60;;;13.70;59.70;;;;;;5013426;28;20688;-74
2021/05/08 09:40:40;;;;;;;0.50;0.50;;;14.60;59.50;;;;;;4995202;28;20623;-74
2021/05/08 09:43:10;;;;;;;0.60;0.60;;;14.00;59.10;;;;;;4994958;28;20653;-74
2021/05/08 09:45:38;;;;;;;0.50;0.50;;;14.10;57.10;;;;;;5006992;28;20243;-73
2021/05/08 09:48:18;;;;;;;0.60;0.60;;;13.90;56.40;;;;;;4998492;28;20230;-79
2021/05/08 09:51:17;;;;;;;0.50;0.50;;;14.00;57.00;;;;;;5017192;28;20199;-77
2021/05/08 09:53:44;;;;;;;0.60;0.60;;;14.00;55.30;;;;;;5018087;28;20290;-79
2021/05/08 09:56:33;;;;;;;0.60;0.60;;;14.20;55.20;;;;;;5016981;28;20227;-77
2021/05/08 09:59:24;;;;;;;0.50;0.50;;;14.00;69.40;;;;;;5008364;28;20631;-76
2021/05/08 10:02:11;;;;;;;0.60;0.60;;;14.10;53.30;;;;;;5018811;28;20215;-77
2021/05/08 10:04:44;;;;;;;0.60;0.60;;;14.10;54.00;;;;;;5013545;28;20200;-74
2021/05/08 10:07:12;;;;;;;0.60;0.60;;;14.40;54.30;;;;;;5013313;28;20233;-74
2021/05/08 10:09:41;;;;;;;0.50;0.50;;;14.40;51.50;;;;;;5012559;28;20215;-75
2021/05/08 10:12:10;;;;;;;0.50;0.50;;;14.90;68.40;;;;;;5013416;28;20671;-75
2021/05/08 10:14:38;;;;;;;0.50;0.50;;;14.80;54.90;;;;;;5013570;28;20259;-74
2021/05/08 10:17:15;;;;;;;0.60;0.60;;;14.80;53.80;;;;;;5014355;28;20233;-74
2021/05/08 10:19:46;;;;;;;0.60;0.60;;;14.70;54.20;;;;;;5013841;28;20215;-74
2021/05/08 10:22:14;;;;;;;0.50;0.50;;;14.50;55.20;;;;;;5006332;28;20203;-74
2021/05/08 10:24:42;;;;;;;0.60;0.60;;;14.40;55.40;;;;;;5002097;28;20203;-74
2021/05/08 10:27:10;;;;;;;0.60;0.60;;;14.50;54.10;;;;;;5004299;28;20712;-73
2021/05/08 10:29:39;;;;;;;0.40;0.40;;;14.50;54.30;;;;;;5002635;28;20196;-75
2021/05/08 10:32:09;;;;;;;0.55;0.55;;;14.50;54.90;;;;;;5001400;28;20255;-76
2021/05/08 10:34:38;;;;;;;0.50;0.50;;;14.60;53.20;;;;;;5002962;28;20668;-73
2021/05/08 10:37:07;;;;;;;0.40;0.40;;;14.70;52.40;;;;;;5005984;28;20223;-74
2021/05/08 10:39:50;;;;;;;0.60;0.60;;;15.00;61.60;;;;;;5003521;28;20200;-74
2021/05/08 10:42:31;;;;;;;0.50;0.50;;;14.90;48.60;;;;;;5000808;28;20203;-75
2021/05/08 10:45:02;;;;;;;0.40;0.40;;;15.00;62.10;;;;;;4996214;28;20721;-75
2021/05/08 10:48:08;;;;;;;0.50;0.50;;;14.90;61.30;;;;;;5002648;28;20246;-77
2021/05/08 10:50:48;;;;;;;0.50;0.50;;;14.70;49.50;;;;;;5006164;28;20198;-73
2021/05/08 10:53:17;;;;;;;0.40;0.40;;;14.70;51.00;;;;;;5001696;28;20187;-77
2021/05/08 10:55:47;;;;;;;0.50;0.50;;;14.60;50.40;;;;;;4993328;28;20227;-76
2021/05/08 10:58:41;;;;;;;0.50;0.50;;;14.70;50.20;;;;;;4994986;28;20195;-78
2021/05/08 11:01:10;;;;;;;0.40;0.40;;;14.80;49.00;;;;;;5001377;28;20265;-78
2021/05/08 11:04:01;;;;;;;0.50;0.50;;;15.00;49.30;;;;;;5001389;28;20338;-76
2021/05/08 11:06:28;;;;;;;0.40;0.40;;;15.00;49.90;;;;;;4997813;28;20223;-77
2021/05/08 11:08:56;;;;;;;0.60;0.60;;;14.90;50.30;;;;;;5006192;28;20199;-77
2021/05/08 11:11:25;;;;;;;0.40;0.40;;;15.00;51.10;;;;;;5004022;28;20231;-78
2021/05/08 11:14:02;;;;;;;0.60;0.60;;;15.10;50.90;;;;;;5006659;28;20249;-76
2021/05/08 11:16:30;;;;;;;0.60;0.60;;;14.90;48.10;;;;;;5005944;28;20233;-76
2021/05/08 11:18:58;;;;;;;0.60;0.60;;;14.80;48.30;;;;;;5003966;28;20223;-75
2021/05/08 11:21:40;;;;;;;0.50;0.50;;;14.70;46.10;;;;;;5002938;28;20219;-75
2021/05/08 11:24:09;;;;;;;0.60;0.60;;;14.70;47.80;;;;;;5000942;28;20196;-74
2021/05/08 11:26:46;;;;;;;0.60;0.60;;;14.50;46.90;;;;;;5004676;28;20239;-74
2021/05/08 11:29:17;;;;;;;0.60;0.60;;;14.50;60.20;;;;;;4991174;28;20665;-74
2021/05/08 11:31:46;;;;;;;0.60;0.60;;;14.70;48.20;;;;;;4991969;28;20204;-73
2021/05/08 11:34:15;;;;;;;0.50;0.50;;;14.90;48.00;;;;;;4992668;28;20196;-73
2021/05/08 11:36:50;;;;;;;0.60;0.60;;;14.90;48.90;;;;;;4992115;28;20216;-73
2021/05/08 11:39:20;;;;;;;0.50;0.50;;;15.20;59.60;;;;;;4998945;28;20265;-74
2021/05/08 11:41:49;;;;;;;0.60;0.60;;;15.20;47.80;;;;;;5001432;28;20191;-73
2021/05/08 11:44:24;;;;;;;0.40;0.40;;;15.20;48.80;;;;;;5001279;28;20204;-74
2021/05/08 11:46:52;;;;;;;0.60;0.60;;;15.10;48.90;;;;;;4991955;28;20794;-73
2021/05/08 11:49:31;;;;;;;0.50;0.50;;;15.30;49.30;;;;;;5003055;28;20226;-74
2021/05/08 11:51:59;;;;;;;0.40;0.40;;;15.40;48.10;;;;;;5001869;28;20541;-73
2021/05/08 11:54:29;;;;;;;0.50;0.50;;;15.40;48.60;;;;;;5005419;28;20191;-74
2021/05/08 11:56:55;;;;;;;0.50;0.50;;;15.80;49.30;;;;;;5005803;28;20227;-74
2021/05/08 11:59:34;;;;;;;0.40;0.40;;;15.80;48.00;;;;;;5004206;28;20204;-75
2021/05/08 12:02:11;;;;;;;0.50;0.50;;;16.00;47.50;;;;;;5004313;28;20282;-72
2021/05/08 12:04:46;;;;;;;0.50;0.50;;;15.70;48.00;;;;;;5004628;28;20657;-73
2021/05/08 12:07:14;;;;;;;0.50;0.50;;;15.90;63.10;;;;;;5004665;28;20215;-73
2021/05/08 12:09:42;;;;;;;0.50;0.50;;;16.10;49.10;;;;;;5005132;28;20206;-72
2021/05/08 12:12:10;;;;;;;0.40;0.40;;;15.90;48.70;;;;;;5005816;28;20254;-72
2021/05/08 12:14:42;;;;;;;0.60;0.60;;;15.90;49.30;;;;;;5004195;28;20212;-73
2021/05/08 12:17:11;;;;;;;0.50;0.50;;;15.90;49.10;;;;;;5003945;28;20219;-73
2021/05/08 12:19:39;;;;;;;0.50;0.50;;;16.00;49.10;;;;;;5006494;28;20192;-71
2021/05/08 12:22:06;;;;;;;0.40;0.40;;;16.30;49.20;;;;;;5005312;28;20697;-74
2021/05/08 12:24:34;;;;;;;0.40;0.40;;;16.40;49.00;;;;;;5003539;28;20196;-75
2021/05/08 12:27:02;;;;;;;0.40;0.40;;;16.20;48.30;;;;;;5003676;28;20227;-74
2021/05/08 12:29:53;;;;;;;0.40;0.40;;;17.00;48.50;;;;;;5007636;28;20282;-74
2021/05/08 12:32:20;;;;;;;0.40;0.40;;;17.00;46.20;;;;;;4994630;28;20228;-72
2021/05/08 12:34:54;;;;;;;0.40;0.40;;;17.00;46.60;;;;;;4994742;28;20230;-72
2021/05/08 12:37:22;;;;;;;0.40;0.40;;;;;;;;;;4994553;28;20215;-72
2021/05/08 12:39:51;;;;;;;0.40;0.40;;;18.00;47.70;;;;;;4994719;28;20557;-72
2021/05/08 12:42:19;;;;;;;0.40;0.40;;;18.20;44.50;;;;;;4995166;28;20591;-72
2021/05/08 12:44:47;;;;;;;0.50;0.50;;;17.90;50.00;;;;;;5001714;28;20192;-72
2021/05/08 12:47:19;;;;;;;0.40;0.40;;;;;;;;;;4996063;28;20220;-72
2021/05/08 12:50:12;;;;;;;0.40;0.40;;;17.30;53.20;;;;;;4991874;28;20207;-71
2021/05/08 12:52:40;;;;;;;0.40;0.40;;;16.70;46.90;;;;;;4992591;28;20212;-74
2021/05/08 12:55:22;;;;;;;0.40;0.40;;;17.20;91.40;;;;;;4993544;28;20230;-74
2021/05/08 12:57:51;;;;;;;0.40;0.40;;;17.50;64.60;;;;;;4995897;28;20294;-70
2021/05/08 13:00:20;;;;;;;0.40;0.40;;;17.60;47.30;;;;;;5003357;28;20207;-71
2021/05/08 13:02:51;;;;;;;0.50;0.50;;;17.80;45.80;;;;;;5002061;28;20219;-70
2021/05/08 13:05:19;;;;;;;0.40;0.40;;;18.30;44.90;;;;;;5002392;28;20224;-73
2021/05/08 13:07:59;;;;;;;0.40;0.40;;;18.90;85.90;;;;;;5004204;28;20254;-71
2021/05/08 13:10:29;;;;;;;0.30;0.30;;;19.10;45.90;;;;;;5005061;28;20535;-71
2021/05/08 13:12:59;;;;;;;0.50;0.50;;;19.10;44.80;;;;;;5010452;28;20544;-72
2021/05/08 13:15:31;;;;;;;0.35;0.35;;;18.90;45.30;;;;;;5006702;28;20228;-70
2021/05/08 13:17:59;;;;;;;0.40;0.40;;;18.60;44.60;;;;;;4993950;28;20196;-72
2021/05/08 13:20:31;;;;;;;0.32;0.32;;;18.40;45.40;;;;;;4993994;28;20203;-71
2021/05/08 13:22:59;;;;;;;0.50;0.50;;;17.50;46.90;;;;;;4994862;28;20223;-77
2021/05/08 13:25:27;;;;;;;0.50;0.50;;;;;;;;;;4996504;28;20232;-74
2021/05/08 13:27:55;;;;;;;0.50;0.50;;;17.10;48.30;;;;;;4993280;28;20486;-72
2021/05/08 13:30:25;;;;;;;0.50;0.50;;;17.30;47.20;;;;;;4994963;28;20208;-74
2021/05/08 13:32:54;;;;;;;0.40;0.40;;;17.80;46.90;;;;;;4993604;28;20620;-75
2021/05/08 13:35:23;;;;;;;0.45;0.45;;;18.00;50.50;;;;;;4992989;28;20239;-74
2021/05/08 13:37:52;;;;;;;0.40;0.40;;;18.40;46.00;;;;;;4992691;28;20624;-73
2021/05/08 13:40:21;;;;;;;0.30;0.30;;;18.60;45.90;;;;;;4992418;28;20265;-73
2021/05/08 13:42:48;;;;;;;0.30;0.30;;;18.60;46.70;;;;;;4993721;28;20204;-73
2021/05/08 13:45:17;;;;;;;0.40;0.40;;;18.00;50.20;;;;;;4994316;28;20208;-74
2021/05/08 13:47:46;;;;;;;0.32;0.32;;;17.70;46.50;;;;;;4994321;28;20295;-73
2021/05/08 13:50:14;;;;;;;0.38;0.38;;;17.60;46.80;;;;;;4992680;28;20208;-74
2021/05/08 13:52:42;;;;;;;0.40;0.40;;;17.70;50.00;;;;;;4994038;28;20196;-75
2021/05/08 13:55:10;;;;;;;0.40;0.40;;;17.80;48.50;;;;;;4993618;28;20224;-74
2021/05/08 13:57:47;;;;;;;0.40;0.40;;;18.20;48.50;;;;;;4994047;28;20576;-75
2021/05/08 14:00:15;;;;;;;0.30;0.30;;;18.60;46.80;;;;;;4994482;28;20259;-74
2021/05/08 14:02:43;;;;;;;0.30;0.30;;;18.30;44.90;;;;;;4994017;28;20246;-75
2021/05/08 14:05:12;;;;;;;0.40;0.40;;;18.90;48.60;;;;;;4993862;28;20254;-75
2021/05/08 14:07:39;;;;;;;0.30;0.30;;;18.90;57.90;;;;;;4993900;28;20219;-75
2021/05/08 14:10:09;;;;;;;0.40;0.40;;;18.90;60.60;;;;;;4994331;28;20262;-75
2021/05/08 14:12:37;;;;;;;0.30;0.30;;;18.70;65.40;;;;;;4993764;28;20208;-75
2021/05/08 14:15:05;;;;;;;0.30;0.30;;;18.60;70.10;;;;;;4992766;28;20219;-75
2021/05/08 14:17:33;;;;;;;0.40;0.40;;;18.40;68.30;;;;;;4992073;28;20212;-75
2021/05/08 14:20:05;;;;;;;0.30;0.30;;;17.90;55.20;;;;;;4992945;28;20204;-75
2021/05/08 14:22:34;;;;;;;0.40;0.40;;;18.30;51.80;;;;;;4993072;28;20262;-75
2021/05/08 14:25:03;;;;;;;0.40;0.40;;;18.40;50.10;;;;;;4971865;28;589418;-75
2021/05/08 14:27:30;;;;;;;0.30;0.30;;;18.60;49.20;;;;;;4993188;28;20208;-75
2021/05/08 14:30:00;;;;;;;0.40;0.40;;;19.60;61.90;;;;;;4993184;28;20633;-75
2021/05/08 14:32:27;;;;;;;0.40;0.40;;;19.90;44.70;;;;;;4993282;28;20208;-75
2021/05/08 14:34:56;;;;;;;0.30;0.30;;;19.70;43.20;;;;;;4993134;28;20215;-75
2021/05/08 14:37:23;;;;;;;0.30;0.30;;;19.40;44.30;;;;;;4994044;28;20200;-74
2021/05/08 14:39:52;;;;;;;0.40;0.40;;;19.60;44.50;;;;;;4993506;28;20265;-75
2021/05/08 14:42:22;;;;;;;0.30;0.30;;;19.30;43.40;;;;;;4994557;28;20207;-75
2021/05/08 14:44:49;;;;;;;0.40;0.40;;;;;;;;;;4995728;28;20235;-75
2021/05/08 14:47:16;;;;;;;0.30;0.30;;;20.30;56.30;;;;;;4993275;28;20290;-75
2021/05/08 14:49:44;;;;;;;0.30;0.30;;;;;;;;;;4993256;28;20203;-75
2021/05/08 14:52:11;;;;;;;0.30;0.30;;;21.00;61.30;;;;;;4993572;28;20208;-75
2021/05/08 14:54:37;;;;;;;0.30;0.30;;;20.30;63.60;;;;;;4993199;28;20262;-75
2021/05/08 14:57:06;;;;;;;0.30;0.30;;;19.90;42.00;;;;;;4995071;28;20230;-74
2021/05/08 14:59:32;;;;;;;0.40;0.40;;;19.70;42.00;;;;;;4992125;28;20207;-75
2021/05/08 15:01:59;;;;;;;0.20;0.20;;;20.10;42.80;;;;;;4992328;28;20211;-75
2021/05/08 15:04:27;;;;;;;0.40;0.40;;;20.20;42.50;;;;;;4992490;28;20291;-75
2021/05/08 15:06:54;;;;;;;0.30;0.30;;;20.00;42.40;;;;;;4992429;28;20226;-74
2021/05/08 15:09:23;;;;;;;0.30;0.30;;;19.60;43.30;;;;;;4992277;28;20204;-74
2021/05/08 15:11:50;;;;;;;0.40;0.40;;;19.20;43.80;;;;;;4992228;28;20211;-75
2021/05/08 15:14:18;;;;;;;0.20;0.20;;;18.90;44.70;;;;;;4992010;28;20258;-74
2021/05/08 15:16:45;;;;;;;0.30;0.30;;;19.30;43.90;;;;;;4992295;28;20228;-74
2021/05/08 15:19:12;;;;;;;0.30;0.30;;;19.40;43.20;;;;;;4991989;28;20200;-75
2021/05/08 15:21:40;;;;;;;0.30;0.30;;;19.90;43.50;;;;;;4992257;28;20204;-74
2021/05/08 15:24:07;;;;;;;0.38;0.38;;;20.10;42.60;;;;;;4991981;28;20235;-74
2021/05/08 15:26:38;;;;;;;0.30;0.30;;;20.20;43.20;;;;;;4991897;28;20243;-74
2021/05/08 15:29:05;;;;;;;0.30;0.30;;;19.60;43.20;;;;;;4995192;28;20204;-75
2021/05/08 15:31:32;;;;;;;0.30;0.30;;;19.40;44.70;;;;;;4995860;28;20267;-75
2021/05/08 15:33:59;;;;;;;0.30;0.30;;;19.00;43.70;;;;;;4995702;28;20203;-75
2021/05/08 15:36:28;;;;;;;0.40;0.40;;;18.70;44.60;;;;;;4995909;28;20242;-75
2021/05/08 15:39:02;;;;;;;0.30;0.30;;;18.60;44.80;;;;;;4996161;28;20200;-73
2021/05/08 15:41:30;;;;;;;0.30;0.30;;;18.40;45.50;;;;;;4995708;28;20226;-74
2021/05/08 15:43:57;;;;;;;0.40;0.40;;;18.40;44.70;;;;;;4998736;28;20200;-74
2021/05/08 15:46:28;;;;;;;0.30;0.30;;;18.70;44.40;;;;;;4994093;28;20219;-74
2021/05/08 15:48:56;;;;;;;0.30;0.30;;;18.60;44.50;;;;;;5002419;28;20236;-74
2021/05/08 15:51:24;;;;;;;0.30;0.30;;;19.10;44.60;;;;;;4995840;28;20254;-74
2021/05/08 15:53:51;;;;;;;0.30;0.30;;;19.50;44.30;;;;;;4995361;28;20235;-75
2021/05/08 15:56:18;;;;;;;0.30;0.30;;;19.50;44.30;;;;;;4995431;28;20224;-76
2021/05/08 15:58:45;;;;;;;0.30;0.30;;;20.10;44.20;;;;;;4995571;28;20294;-74
2021/05/08 16:01:12;;;;;;;0.30;0.30;;;20.90;42.60;;;;;;4995799;28;20611;-76
2021/05/08 16:03:39;;;;;;;0.30;0.30;;;20.80;43.40;;;;;;5012460;28;20200;-75
2021/05/08 16:06:08;;;;;;;0.30;0.30;;;21.30;56.80;;;;;;5014304;28;20274;-73
2021/05/08 16:08:35;;;;;;;0.20;0.20;;;21.30;41.80;;;;;;5014564;28;20258;-74
2021/05/08 16:11:02;;;;;;;0.20;0.20;;;21.40;41.10;;;;;;5014470;28;20203;-75
2021/05/08 16:13:29;;;;;;;0.20;0.20;;;21.30;41.60;;;;;;5015323;28;20207;-75
2021/05/08 16:15:56;;;;;;;0.20;0.20;;;22.70;40.00;;;;;;5023682;28;20242;-73
2021/05/08 16:18:23;;;;;;;0.20;0.20;;;24.10;40.40;;;;;;5029161;28;20204;-75
2021/05/08 16:20:50;;;;;;;0.30;0.30;;;23.20;39.80;;;;;;5019385;28;20290;-77
2021/05/08 16:23:18;;;;;;;0.20;0.20;;;22.80;40.30;;;;;;5021967;28;20212;-76
2021/05/08 16:25:45;;;;;;;0.20;0.20;;;;;;;;;;5015730;28;20262;-75
2021/05/08 16:28:12;;;;;;;0.28;0.28;;;21.70;40.60;;;;;;5022782;28;20203;-75
2021/05/08 16:30:39;;;;;;;0.20;0.20;;;22.20;40.70;;;;;;5009667;28;20897;-77
2021/05/08 16:33:07;;;;;;;0.20;0.20;;;22.40;40.90;;;;;;5005826;28;20193;-76
2021/05/08 16:35:34;;;;;;;0.20;0.20;;;22.20;41.60;;;;;;5013757;28;20227;-76
2021/05/08 16:38:01;;;;;;;0.20;0.20;;;21.90;40.60;;;;;;5016658;28;20210;-78
2021/05/08 16:40:30;;;;;;;0.20;0.20;;;;;;;;;;5018345;28;20203;-78
2021/05/08 16:42:58;;;;;;;0.10;0.10;;;24.70;48.60;;;;;;5018184;28;20211;-77
2021/05/08 16:45:26;;;;;;;0.20;0.20;;;24.90;47.80;;;;;;5014180;28;20227;-77
2021/05/08 16:47:53;;;;;;;0.10;0.10;;;25.10;37.80;;;;;;5014082;28;20208;-77
2021/05/08 16:50:21;;;;;;;0.10;0.10;;;26.40;39.70;;;;;;5019183;28;20214;-77
2021/05/08 16:52:50;;;;;;;0.10;0.10;;;26.70;36.30;;;;;;5017287;28;20207;-76
2021/05/08 16:55:18;;;;;;;0.17;0.17;;;27.00;42.20;;;;;;5018598;28;20286;-76
2021/05/08 16:57:46;;;;;;;0.10;0.10;;;27.10;35.40;;;;;;5019621;28;20668;-78
2021/05/08 17:00:16;;;;;;;0.10;0.10;;;27.80;34.50;;;;;;5015838;28;20226;-78
2021/05/08 17:02:44;;;;;;;0.10;0.10;;;28.10;34.90;;;;;;5015856;28;20199;-79
2021/05/08 17:05:11;;;;;;;0.10;0.10;;;28.00;42.60;;;;;;5015268;28;20253;-76
2021/05/08 17:07:38;;;;;;;0.10;0.10;;;27.80;34.30;;;;;;5014512;28;20704;-76
2021/05/08 17:10:07;;;;;;;0.10;0.10;;;27.40;34.90;;;;;;5013918;28;20615;-76
2021/05/08 17:12:34;;;;;;;0.10;0.10;;;;;;;;;;5017410;28;20217;-79
2021/05/08 17:15:04;;;;;;;0.10;0.10;;;26.20;45.50;;;;;;5020515;28;20246;-77
2021/05/08 17:17:31;;;;;;;0.20;0.20;;;26.10;36.00;;;;;;5000788;28;20824;-75
2021/05/08 17:19:59;;;;;;;0.20;0.20;;;25.30;36.30;;;;;;4998076;28;20669;-78